createdAt,value
2022-12-19T20:20:57.822Z,51.80
2022-12-19T20:21:57.718Z,51.71
2022-12-19T20:22:57.749Z,51.72
2022-12-19T20:23:59.477Z,51.84
2022-12-19T20:24:59.010Z,51.90
2022-12-19T20:25:57.249Z,52.00
2022-12-19T20:26:57.959Z,52.09
2022-12-19T20:27:56.963Z,52.18
2022-12-19T20:28:56.840Z,52.29
2022-12-19T20:29:57.979Z,52.27
2022-12-19T20:30:56.600Z,52.52
2022-12-19T20:31:56.609Z,52.47
2022-12-19T20:32:56.288Z,52.59
2022-12-19T20:33:56.494Z,52.78
2022-12-19T20:34:55.968Z,52.72
2022-12-19T20:35:55.975Z,52.67
2022-12-19T20:36:55.694Z,52.77
2022-12-19T20:37:56.908Z,52.82
2022-12-19T20:38:55.372Z,52.81
2022-12-19T20:39:55.208Z,52.83
2022-12-19T20:40:55.493Z,53.50
2022-12-19T20:41:54.893Z,52.96
2022-12-19T20:42:54.828Z,52.93
2022-12-19T20:43:54.609Z,52.78
2022-12-19T20:44:54.507Z,52.82
2022-12-19T20:45:54.306Z,52.73
2022-12-19T20:46:54.301Z,52.74
2022-12-19T20:47:54.059Z,52.70
2022-12-19T20:48:53.919Z,52.63
2022-12-19T20:49:53.719Z,52.73
2022-12-19T20:50:56.988Z,52.65
2022-12-19T20:51:53.409Z,52.82
2022-12-19T20:52:53.323Z,52.91
2022-12-19T20:53:53.248Z,52.76
2022-12-19T21:14:52.256Z,53.16
2022-12-19T21:15:51.924Z,53.51
2022-12-19T21:16:52.146Z,53.48
2022-12-19T21:17:52.157Z,53.38
2022-12-19T21:18:51.223Z,53.36
2022-12-19T21:20:50.641Z,53.61
